Salt Lake City, Utah
Traffic Map
Current Weather Conditions
Salt Lake City, Utah
Broken Clouds
Broken Clouds
94°
Feels Like: 94°
Wind Chill: 94° Ceiling: 18000
Heat Index: 94° Visibility: 10mi
Dew Point: 40° Wind: 13mph
Humidity: 15% Direction: 260° (W)
Pressure: 30in Gusts: 0mph
Raw Report DataKSLC 232254Z 26011KT 10SM FEW070CB FEW100 SCT140 BKN180 BKN230 34/04 A3000 RMK AO2 LTG DSNT E AND SE SLP095 VIRGA CB S MOV NE AND DSNT E AND SE TCU DSNT NE ACSL DSNT N T03440044
Traffic Incident Summary
Active as of:
Severity:
Category:
InformationThere was an issue retrieving the traffic information for this location. Please try a different location or try again shortly.
Advertisements
Track Severe Weather on mobile